Time;durP1;ratioP1;P1;durP2;ratioP2;P2;SDS_P1;SDS_P2;PMS_P1;PMS_P2;Temp;Humidity;BMP_temperature;BMP_pressure;BME280_temperature;BME280_humidity;BME280_pressure;Samples;Min_cycle;Max_cycle;Signal;HPM_P1;HPM_P2
2022/01/02 00:01:53;;;;;;;24.85;13.27;;;5.60;99.90;;;;;;5008269;23;20702;-83
2022/01/02 00:04:21;;;;;;;29.77;15.38;;;5.50;99.90;;;;;;5012632;28;20210;-86
2022/01/02 00:06:52;;;;;;;29.73;14.48;;;5.60;99.90;;;;;;5000937;28;20214;-85
2022/01/02 00:09:36;;;;;;;41.83;22.25;;;5.60;99.90;;;;;;5019402;28;20178;-86
2022/01/02 00:12:11;;;;;;;36.63;17.38;;;5.40;99.90;;;;;;5005436;28;20206;-87
2022/01/02 00:14:41;;;;;;;39.08;18.00;;;5.40;99.90;;;;;;5023306;28;20182;-87
2022/01/02 00:17:07;;;;;;;17.08;8.27;;;5.50;99.90;;;;;;5017111;28;20213;-87
2022/01/02 00:19:34;;;;;;;20.80;13.00;;;5.10;99.90;;;;;;4994775;28;20214;-84
2022/01/02 00:22:04;;;;;;;40.50;26.50;;;5.10;99.90;;;;;;5010831;28;21229;-81
2022/01/02 00:24:31;;;;;;;33.92;17.98;;;5.10;99.90;;;;;;4993173;28;20236;-85
2022/01/02 00:26:58;;;;;;;37.22;20.48;;;5.10;99.90;;;;;;5007833;28;20617;-84
2022/01/02 00:29:25;;;;;;;27.60;20.17;;;5.00;99.90;;;;;;5011594;28;20774;-85
2022/01/02 00:31:53;;;;;;;27.15;11.80;;;5.10;99.90;;;;;;5013889;28;20213;-84
2022/01/02 00:34:19;;;;;;;23.40;11.38;;;4.90;99.90;;;;;;4997900;28;20237;-83
2022/01/02 00:36:44;;;;;;;15.33;9.03;;;4.90;99.90;;;;;;5011512;28;20195;-83
2022/01/02 00:39:10;;;;;;;17.47;9.57;;;5.00;99.90;;;;;;4996321;28;20213;-85
2022/01/02 00:41:38;;;;;;;21.83;10.80;;;5.00;99.90;;;;;;5013433;28;20191;-83
2022/01/02 00:44:13;;;;;;;17.52;9.10;;;5.10;99.90;;;;;;5000826;28;20213;-83
2022/01/02 00:46:51;;;;;;;17.23;8.52;;;5.10;99.90;;;;;;5012369;28;20193;-83
2022/01/02 00:49:21;;;;;;;17.33;9.02;;;5.30;99.90;;;;;;4996659;28;20194;-83
2022/01/02 00:51:52;;;;;;;12.95;8.90;;;5.30;99.90;;;;;;5000802;28;20225;-83
2022/01/02 00:54:22;;;;;;;16.23;7.57;;;5.30;99.90;;;;;;4998853;28;20673;-83
2022/01/02 00:56:51;;;;;;;21.08;8.02;;;5.30;99.90;;;;;;5014115;28;20825;-82
2022/01/02 00:59:28;;;;;;;18.75;9.40;;;5.30;99.90;;;;;;4996981;28;20198;-84
2022/01/02 01:02:03;;;;;;;12.82;6.95;;;5.30;99.90;;;;;;5019247;28;20246;-81
2022/01/02 01:04:34;;;;;;;17.15;8.48;;;5.30;99.90;;;;;;4993739;28;20174;-81
2022/01/02 01:07:06;;;;;;;16.63;7.45;;;5.30;99.90;;;;;;4993434;28;20208;-83
2022/01/02 01:09:32;;;;;;;13.85;8.18;;;5.30;99.90;;;;;;4997245;28;20191;-83
2022/01/02 01:11:59;;;;;;;11.30;7.15;;;5.30;99.90;;;;;;5010825;28;20671;-82
2022/01/02 01:14:26;;;;;;;11.98;6.60;;;5.30;99.90;;;;;;4995910;28;20189;-83
2022/01/02 01:16:54;;;;;;;13.65;7.00;;;5.30;99.90;;;;;;4993111;28;20193;-83
2022/01/02 01:19:22;;;;;;;12.27;6.30;;;5.30;99.90;;;;;;5012114;28;20289;-84
2022/01/02 01:21:49;;;;;;;15.93;7.38;;;5.40;99.90;;;;;;4992535;28;20313;-85
2022/01/02 01:24:14;;;;;;;14.20;6.03;;;5.40;99.90;;;;;;5015768;28;20175;-83
2022/01/02 01:26:40;;;;;;;10.27;6.53;;;5.40;99.90;;;;;;5014238;28;20175;-83
2022/01/02 01:29:07;;;;;;;17.00;8.98;;;5.40;99.90;;;;;;5016118;28;20174;-84
2022/01/02 01:31:32;;;;;;;20.23;10.25;;;5.50;99.90;;;;;;5016355;28;20826;-84
2022/01/02 01:33:58;;;;;;;22.37;9.97;;;5.50;99.90;;;;;;4992447;28;20178;-83
2022/01/02 01:36:23;;;;;;;19.67;8.03;;;5.40;99.90;;;;;;4989137;28;20213;-83
2022/01/02 01:38:49;;;;;;;19.63;10.13;;;5.40;99.90;;;;;;4995227;28;20190;-83
2022/01/02 01:41:25;;;;;;;25.30;10.20;;;5.40;99.90;;;;;;4991822;28;20198;-83
2022/01/02 01:44:07;;;;;;;20.13;11.05;;;5.40;99.90;;;;;;5006932;28;20171;-82
2022/01/02 01:46:35;;;;;;;26.30;12.48;;;5.30;99.90;;;;;;5011227;28;20178;-82
2022/01/02 01:49:00;;;;;;;64.03;14.18;;;5.20;99.90;;;;;;4990963;28;20528;-81
2022/01/02 01:51:26;;;;;;;212.80;19.97;;;5.20;99.90;;;;;;4988266;28;20199;-83
2022/01/02 01:53:54;;;;;;;137.50;14.53;;;4.80;99.90;;;;;;4995237;28;20182;-81
2022/01/02 01:56:20;;;;;;;127.05;14.35;;;4.80;99.90;;;;;;5010980;28;21191;-84
2022/01/02 01:58:46;;;;;;;117.17;14.30;;;4.70;99.90;;;;;;5010360;28;20197;-83
2022/01/02 02:01:11;;;;;;;129.07;13.40;;;4.70;99.90;;;;;;4993701;28;20278;-82
2022/01/02 02:03:37;;;;;;;154.70;16.73;;;4.80;99.90;;;;;;4994560;28;20297;-84
2022/01/02 02:06:03;;;;;;;143.63;15.13;;;;;;;;;;5008961;28;20183;-85
2022/01/02 02:08:28;;;;;;;141.18;17.67;;;4.60;99.90;;;;;;5012408;28;20274;-83
2022/01/02 02:10:56;;;;;;;102.70;17.00;;;4.50;99.90;;;;;;4992593;28;20584;-82
2022/01/02 02:13:23;;;;;;;352.77;37.13;;;4.60;99.90;;;;;;5009174;28;20663;-84
2022/01/02 02:15:50;;;;;;;301.08;26.83;;;4.60;99.90;;;;;;5004257;28;20179;-81
2022/01/02 02:18:16;;;;;;;132.20;24.65;;;4.60;99.90;;;;;;4990106;28;20722;-85
2022/01/02 02:20:42;;;;;;;68.20;17.30;;;4.60;99.90;;;;;;5004371;28;20202;-84
2022/01/02 02:23:08;;;;;;;238.15;23.20;;;4.60;99.90;;;;;;4995650;28;20430;-83
2022/01/02 02:25:36;;;;;;;208.60;23.20;;;4.50;99.90;;;;;;4994182;28;20261;-83
2022/01/02 02:28:09;;;;;;;222.80;22.67;;;4.50;99.90;;;;;;4993714;28;20291;-83
2022/01/02 02:30:37;;;;;;;58.97;15.48;;;4.40;99.90;;;;;;4992655;28;20281;-80
2022/01/02 02:33:05;;;;;;;85.95;19.52;;;4.30;99.90;;;;;;4990822;28;20272;-82
2022/01/02 02:35:32;;;;;;;117.75;23.10;;;4.20;99.90;;;;;;5005998;28;20590;-83
2022/01/02 02:37:58;;;;;;;353.88;40.55;;;4.20;99.90;;;;;;5010606;28;20624;-83
2022/01/02 02:40:28;;;;;;;68.25;19.48;;;4.20;99.90;;;;;;5009143;28;20329;-84
2022/01/02 02:43:05;;;;;;;105.85;20.10;;;4.30;99.90;;;;;;5005094;28;20709;-82
2022/01/02 02:51:05;;;;;;;361.08;36.95;;;4.30;99.90;;;;;;5000340;28;20257;-83
2022/01/02 02:53:35;;;;;;;271.65;30.50;;;4.30;99.90;;;;;;5000117;28;20250;-83
2022/01/02 02:56:01;;;;;;;317.00;30.65;;;4.10;99.90;;;;;;5005264;28;20170;-83
2022/01/02 03:00:56;;;;;;;196.88;24.13;;;3.90;99.90;;;;;;5004095;28;20468;-82
2022/01/02 03:03:22;;;;;;;84.47;16.80;;;3.80;99.90;;;;;;5004726;28;20206;-85
2022/01/02 03:05:47;;;;;;;43.10;14.45;;;3.90;99.90;;;;;;4988437;28;20202;-85
2022/01/02 03:08:13;;;;;;;72.63;15.40;;;4.10;99.90;;;;;;4992465;28;20270;-85
2022/01/02 03:10:38;;;;;;;54.37;14.37;;;4.00;99.90;;;;;;4982061;28;20256;-83
2022/01/02 03:13:04;;;;;;;88.13;15.53;;;3.90;99.90;;;;;;4989428;28;20725;-84
2022/01/02 03:15:29;;;;;;;106.70;20.73;;;3.90;99.90;;;;;;5007205;28;20193;-83
2022/01/02 03:17:55;;;;;;;88.97;18.00;;;3.90;99.90;;;;;;5006160;28;20187;-85
2022/01/02 03:20:20;;;;;;;59.07;15.60;;;3.90;99.90;;;;;;4989935;28;20593;-86
2022/01/02 03:22:46;;;;;;;197.33;23.27;;;4.00;99.90;;;;;;5012605;28;20282;-85
2022/01/02 03:25:14;;;;;;;161.87;24.50;;;4.10;99.90;;;;;;4993223;28;20810;-87
2022/01/02 03:27:40;;;;;;;113.22;18.35;;;4.10;99.90;;;;;;4994629;28;20203;-85
2022/01/02 03:30:07;;;;;;;158.85;19.85;;;4.10;99.90;;;;;;5014479;28;20222;-86
2022/01/02 03:32:32;;;;;;;122.38;15.02;;;7.30;99.90;;;;;;5000518;28;20186;-85
2022/01/02 03:34:58;;;;;;;70.20;13.80;;;;;;;;;;4991260;28;20270;-86
2022/01/02 03:37:28;;;;;;;27.57;12.67;;;3.70;99.90;;;;;;5016769;28;20224;-85
2022/01/02 03:39:54;;;;;;;26.95;10.93;;;3.50;99.90;;;;;;4992451;28;20488;-84
2022/01/02 03:42:20;;;;;;;18.30;11.60;;;3.50;99.90;;;;;;4993486;28;20206;-86
2022/01/02 03:44:45;;;;;;;18.93;10.23;;;3.20;99.90;;;;;;5009506;28;20182;-85
2022/01/02 03:47:11;;;;;;;22.60;13.00;;;3.20;99.90;;;;;;4995198;28;20707;-86
2022/01/02 03:49:37;;;;;;;15.00;9.43;;;3.10;99.90;;;;;;4995294;28;20276;-86
2022/01/02 03:52:04;;;;;;;17.47;10.80;;;3.10;99.90;;;;;;4989806;28;20197;-85
2022/01/02 03:54:29;;;;;;;16.90;8.90;;;3.10;99.90;;;;;;5009163;28;20201;-85
2022/01/02 03:56:55;;;;;;;19.43;11.00;;;3.20;99.90;;;;;;4990199;28;20175;-83
2022/01/02 03:59:20;;;;;;;28.00;13.80;;;3.40;99.90;;;;;;4993397;28;20297;-84
2022/01/02 04:01:46;;;;;;;23.33;13.10;;;3.50;99.90;;;;;;5008776;28;20599;-80
2022/01/02 04:04:12;;;;;;;35.63;15.07;;;3.90;99.90;;;;;;5009380;28;20182;-81
2022/01/02 04:06:37;;;;;;;34.03;18.40;;;4.10;99.90;;;;;;4988545;28;20175;-80
2022/01/02 04:09:03;;;;;;;21.87;14.10;;;4.30;99.90;;;;;;5010904;28;20187;-83
2022/01/02 04:11:29;;;;;;;29.95;14.43;;;4.30;99.90;;;;;;5010867;28;20272;-85
2022/01/02 04:13:55;;;;;;;30.93;13.43;;;4.20;99.90;;;;;;4991936;28;20221;-84
2022/01/02 04:16:20;;;;;;;35.97;13.70;;;4.10;99.90;;;;;;5013033;28;20182;-82
2022/01/02 04:18:46;;;;;;;18.50;10.30;;;4.10;99.90;;;;;;5013124;28;20582;-84
2022/01/02 04:21:12;;;;;;;23.53;11.37;;;4.10;99.90;;;;;;5015628;28;20211;-86
2022/01/02 04:23:38;;;;;;;20.40;10.93;;;6.50;99.90;;;;;;4996378;28;20182;-86
2022/01/02 04:26:04;;;;;;;21.63;13.05;;;4.10;99.90;;;;;;5012032;28;20210;-85
2022/01/02 04:28:30;;;;;;;21.35;13.15;;;4.30;99.90;;;;;;5013771;28;20179;-85
2022/01/02 04:30:56;;;;;;;25.27;13.10;;;4.30;99.90;;;;;;4996026;28;20202;-85
2022/01/02 04:33:21;;;;;;;22.90;12.63;;;4.30;99.90;;;;;;5002078;28;20414;-83
2022/01/02 04:35:47;;;;;;;37.67;14.20;;;4.50;99.90;;;;;;5000475;28;20174;-83
2022/01/02 04:38:14;;;;;;;28.67;12.97;;;;;;;;;;4999669;28;21250;-83
2022/01/02 04:40:40;;;;;;;30.67;13.73;;;4.50;99.90;;;;;;5014158;28;20225;-83
2022/01/02 04:43:06;;;;;;;29.90;14.38;;;4.60;99.90;;;;;;4987041;28;20500;-82
2022/01/02 04:45:31;;;;;;;24.40;13.40;;;4.70;99.90;;;;;;4982164;28;20197;-82
2022/01/02 04:47:57;;;;;;;18.27;10.20;;;4.70;99.90;;;;;;4996411;28;21072;-83
2022/01/02 04:50:22;;;;;;;17.93;9.43;;;4.80;99.90;;;;;;4992764;28;20229;-84
2022/01/02 04:52:48;;;;;;;20.57;11.37;;;;;;;;;;5010681;28;20218;-83
2022/01/02 04:55:14;;;;;;;24.37;11.83;;;4.70;99.90;;;;;;5003055;28;20179;-83
2022/01/02 04:57:40;;;;;;;18.10;10.10;;;4.80;99.90;;;;;;5006889;28;20439;-84
2022/01/02 05:00:06;;;;;;;21.53;11.17;;;4.80;99.90;;;;;;4997841;28;20210;-82
2022/01/02 05:02:32;;;;;;;23.15;11.40;;;4.90;99.90;;;;;;4994184;28;20565;-83
2022/01/02 05:04:58;;;;;;;19.60;12.23;;;4.90;99.90;;;;;;5008932;28;20187;-83
2022/01/02 05:07:23;;;;;;;27.37;15.27;;;5.00;99.90;;;;;;4997976;28;20666;-83
2022/01/02 05:09:49;;;;;;;25.47;13.97;;;5.10;99.90;;;;;;4995615;28;20251;-84
2022/01/02 05:12:14;;;;;;;29.27;13.57;;;5.10;99.90;;;;;;5011065;28;20203;-84
2022/01/02 05:14:40;;;;;;;23.07;12.03;;;;;;;;;;5010019;28;20183;-84
2022/01/02 05:17:06;;;;;;;26.07;15.43;;;5.10;99.90;;;;;;4994281;28;20182;-82
2022/01/02 05:19:32;;;;;;;33.13;14.10;;;5.10;99.90;;;;;;5012107;28;20935;-84
2022/01/02 05:21:58;;;;;;;22.17;10.52;;;5.00;99.90;;;;;;4996972;28;20198;-84
2022/01/02 05:24:23;;;;;;;30.35;13.40;;;4.70;99.90;;;;;;4994749;28;20228;-82
2022/01/02 05:26:50;;;;;;;27.80;12.20;;;4.70;99.90;;;;;;4989870;28;20178;-82
2022/01/02 05:29:16;;;;;;;22.75;11.10;;;4.70;99.90;;;;;;4998753;28;20178;-81
2022/01/02 05:31:42;;;;;;;28.47;11.50;;;4.80;99.90;;;;;;5009781;28;20213;-81
2022/01/02 05:34:08;;;;;;;31.33;11.70;;;4.80;99.90;;;;;;4987525;28;20438;-79
2022/01/02 05:36:34;;;;;;;22.63;11.70;;;4.80;99.90;;;;;;4991849;28;20201;-83
2022/01/02 05:39:00;;;;;;;23.03;12.50;;;4.90;99.90;;;;;;4994583;28;20489;-83
2022/01/02 05:41:27;;;;;;;19.00;8.95;;;4.90;99.90;;;;;;5017599;28;20195;-83
2022/01/02 05:43:53;;;;;;;22.95;10.50;;;4.70;99.90;;;;;;5007295;28;20534;-84
2022/01/02 05:46:18;;;;;;;20.27;11.40;;;4.50;99.90;;;;;;4991292;28;20186;-81
2022/01/02 05:48:44;;;;;;;29.63;14.30;;;4.50;99.90;;;;;;4992244;28;20448;-80
2022/01/02 05:51:10;;;;;;;24.70;13.57;;;4.60;99.90;;;;;;5004147;28;20217;-81
2022/01/02 05:53:35;;;;;;;30.87;14.40;;;4.60;99.90;;;;;;4988107;28;20182;-83
2022/01/02 05:56:02;;;;;;;27.50;13.43;;;4.50;99.90;;;;;;4989579;28;20245;-82
2022/01/02 05:58:27;;;;;;;34.65;15.55;;;4.40;99.90;;;;;;5004430;28;20182;-83
2022/01/02 06:00:53;;;;;;;36.40;15.40;;;4.30;99.90;;;;;;5005183;28;20765;-81
2022/01/02 06:03:18;;;;;;;33.67;15.33;;;4.30;99.90;;;;;;5015024;23;20234;-85
2022/01/02 06:05:44;;;;;;;32.50;16.83;;;4.30;99.90;;;;;;4999445;28;20991;-85
2022/01/02 06:08:09;;;;;;;30.90;16.70;;;4.50;99.90;;;;;;5002501;28;20213;-85
2022/01/02 06:10:35;;;;;;;99.63;23.10;;;4.50;99.90;;;;;;5006131;28;20179;-85
2022/01/02 06:13:01;;;;;;;146.77;25.40;;;4.50;99.90;;;;;;4996392;28;20223;-84
2022/01/02 06:15:26;;;;;;;349.20;37.07;;;4.40;99.90;;;;;;4989745;28;20976;-84
2022/01/02 06:17:52;;;;;;;319.37;35.93;;;4.30;99.90;;;;;;4986963;28;20662;-85
2022/01/02 06:20:17;;;;;;;342.40;37.03;;;4.10;99.90;;;;;;4985588;28;20218;-84
2022/01/02 06:22:43;;;;;;;265.93;30.37;;;4.10;99.90;;;;;;4988912;28;20195;-84
2022/01/02 06:25:09;;;;;;;237.03;30.47;;;4.00;99.90;;;;;;4964227;28;20233;-85
2022/01/02 06:27:34;;;;;;;164.23;23.47;;;4.00;99.90;;;;;;4988261;28;20187;-85
2022/01/02 06:30:00;;;;;;;166.30;23.63;;;3.90;99.90;;;;;;4989058;28;20190;-84
2022/01/02 06:32:25;;;;;;;95.07;21.27;;;4.10;99.90;;;;;;4975961;28;20203;-84
2022/01/02 06:34:51;;;;;;;97.37;17.80;;;4.10;99.90;;;;;;4973079;28;20241;-85
2022/01/02 06:37:16;;;;;;;52.33;18.40;;;4.20;99.90;;;;;;4987364;28;20198;-85
2022/01/02 06:39:42;;;;;;;36.07;16.70;;;4.20;99.90;;;;;;4990165;28;20233;-84
2022/01/02 06:42:08;;;;;;;28.90;15.73;;;4.20;99.90;;;;;;4991308;28;20282;-85
2022/01/02 06:44:33;;;;;;;33.97;15.53;;;4.20;99.90;;;;;;4971932;28;20187;-84
2022/01/02 06:46:59;;;;;;;35.43;18.80;;;4.10;99.90;;;;;;4987091;28;20222;-85
2022/01/02 06:49:24;;;;;;;39.50;18.00;;;4.20;99.90;;;;;;4975281;28;20624;-86
2022/01/02 06:51:50;;;;;;;28.00;15.00;;;4.30;99.90;;;;;;4971928;28;20211;-84
2022/01/02 06:54:15;;;;;;;29.37;14.90;;;4.30;99.90;;;;;;4972225;28;20223;-84
2022/01/02 06:56:41;;;;;;;47.50;22.73;;;4.40;99.90;;;;;;4997691;28;20240;-84
2022/01/02 06:59:06;;;;;;;34.87;17.10;;;4.20;99.90;;;;;;4999017;28;20210;-85
2022/01/02 07:01:32;;;;;;;28.20;15.90;;;4.20;99.90;;;;;;4992597;28;20175;-85
2022/01/02 07:03:58;;;;;;;33.70;16.80;;;4.20;99.90;;;;;;4993931;28;20179;-84
2022/01/02 07:06:23;;;;;;;32.93;16.23;;;4.20;99.90;;;;;;4992940;28;20442;-85
2022/01/02 07:08:49;;;;;;;29.90;18.77;;;4.20;99.90;;;;;;4995295;28;20206;-85
2022/01/02 07:11:14;;;;;;;28.97;15.73;;;4.30;99.90;;;;;;4994137;28;20559;-84
2022/01/02 07:13:40;;;;;;;29.10;16.10;;;4.40;99.90;;;;;;4975940;28;20207;-85
2022/01/02 07:16:06;;;;;;;31.27;16.63;;;4.50;99.90;;;;;;4994604;28;20237;-84
2022/01/02 07:18:32;;;;;;;35.50;16.73;;;4.30;99.90;;;;;;4976730;28;20832;-86
2022/01/02 07:20:57;;;;;;;32.93;17.27;;;4.20;99.90;;;;;;4971930;28;21921;-86
2022/01/02 07:23:23;;;;;;;26.30;16.47;;;4.20;99.90;;;;;;4991742;28;20230;-84
2022/01/02 07:25:48;;;;;;;27.43;13.93;;;4.20;99.90;;;;;;4994112;28;20191;-85
2022/01/02 07:28:14;;;;;;;24.27;14.20;;;4.20;99.90;;;;;;4978213;28;20266;-85
2022/01/02 07:30:40;;;;;;;31.17;17.70;;;4.30;99.90;;;;;;4972799;28;20183;-86
2022/01/02 07:33:05;;;;;;;30.53;15.00;;;4.50;99.90;;;;;;4990402;28;20202;-85
2022/01/02 07:35:32;;;;;;;28.07;15.30;;;4.50;99.90;;;;;;4981538;28;20183;-85
2022/01/02 07:37:58;;;;;;;28.85;15.10;;;4.60;99.90;;;;;;4990674;28;20194;-85
2022/01/02 07:40:24;;;;;;;33.77;15.20;;;4.60;99.90;;;;;;4985214;28;20285;-85
2022/01/02 07:42:50;;;;;;;46.35;20.50;;;4.60;99.90;;;;;;4994605;28;20458;-86
2022/01/02 07:45:16;;;;;;;37.90;17.93;;;4.50;99.90;;;;;;4993428;28;20190;-85
2022/01/02 07:47:41;;;;;;;37.63;18.80;;;5.60;99.90;;;;;;4990624;28;20438;-85
2022/01/02 07:50:07;;;;;;;39.97;20.23;;;4.70;99.90;;;;;;4986733;28;20986;-86
2022/01/02 07:52:33;;;;;;;23.90;14.38;;;4.80;99.90;;;;;;4990864;28;20207;-84
2022/01/02 07:54:59;;;;;;;29.40;15.10;;;5.00;99.90;;;;;;4988340;28;20199;-84
2022/01/02 07:57:24;;;;;;;33.70;18.63;;;5.00;99.90;;;;;;4990879;28;20273;-85
2022/01/02 07:59:50;;;;;;;38.17;17.40;;;5.10;99.90;;;;;;4969266;28;20686;-84
2022/01/02 08:02:15;;;;;;;28.40;18.00;;;5.20;99.90;;;;;;4983185;28;20215;-84
2022/01/02 08:04:41;;;;;;;30.77;16.20;;;5.30;99.90;;;;;;4987409;28;21097;-85
2022/01/02 08:07:06;;;;;;;27.70;16.77;;;5.40;99.90;;;;;;4988622;28;20629;-84
2022/01/02 08:09:32;;;;;;;32.13;15.70;;;5.60;99.90;;;;;;4974077;28;20215;-85
2022/01/02 08:11:57;;;;;;;24.00;13.50;;;5.70;99.90;;;;;;4991991;28;20203;-84
2022/01/02 08:14:23;;;;;;;31.70;15.90;;;5.80;99.90;;;;;;4992323;28;20187;-84
2022/01/02 08:16:48;;;;;;;26.23;14.70;;;6.00;99.90;;;;;;4991305;28;20227;-84
2022/01/02 08:19:14;;;;;;;26.50;16.23;;;6.50;99.90;;;;;;4994226;28;20199;-85
2022/01/02 08:21:40;;;;;;;24.53;16.93;;;7.10;99.90;;;;;;4989288;28;20258;-85
2022/01/02 08:24:06;;;;;;;18.70;13.90;;;7.10;99.90;;;;;;4990219;28;20430;-84
2022/01/02 08:26:32;;;;;;;20.60;13.18;;;7.10;99.90;;;;;;4991636;28;20185;-85
2022/01/02 08:29:00;;;;;;;24.40;14.97;;;7.10;99.90;;;;;;4973857;28;20298;-84
2022/01/02 08:31:27;;;;;;;30.13;16.23;;;7.00;99.90;;;;;;4977698;28;20815;-85
2022/01/02 08:33:53;;;;;;;25.73;16.15;;;6.90;99.90;;;;;;4974022;28;20191;-84
2022/01/02 08:36:19;;;;;;;24.60;14.38;;;6.90;99.90;;;;;;4969389;28;20202;-84
2022/01/02 08:38:47;;;;;;;30.40;15.20;;;6.80;99.90;;;;;;4976429;28;20290;-84
2022/01/02 08:41:13;;;;;;;16.38;11.18;;;6.70;99.90;;;;;;4998728;28;20178;-84
2022/01/02 08:43:39;;;;;;;19.70;12.32;;;6.70;99.90;;;;;;4992363;28;20237;-85
2022/01/02 08:46:05;;;;;;;22.43;13.40;;;7.00;99.90;;;;;;4994533;28;20190;-85
2022/01/02 08:48:30;;;;;;;90.20;46.97;;;7.10;99.90;;;;;;4995193;28;20659;-86
2022/01/02 08:50:56;;;;;;;38.10;21.80;;;;;;;;;;4992341;28;20580;-85
2022/01/02 08:53:22;;;;;;;42.55;24.80;;;7.40;99.90;;;;;;4990655;28;20215;-85
2022/01/02 08:55:48;;;;;;;33.33;21.33;;;7.60;99.90;;;;;;4977278;28;20190;-84
2022/01/02 08:58:13;;;;;;;27.80;14.80;;;7.60;99.90;;;;;;4996667;28;20664;-85
2022/01/02 09:00:39;;;;;;;27.33;15.20;;;7.60;99.90;;;;;;4977462;28;20202;-83
2022/01/02 09:03:06;;;;;;;18.23;12.03;;;7.50;99.90;;;;;;4976930;28;20238;-85
2022/01/02 09:05:32;;;;;;;18.42;12.07;;;7.40;99.90;;;;;;4995022;28;20193;-84
2022/01/02 09:07:58;;;;;;;24.75;15.00;;;7.60;99.90;;;;;;4992764;28;20179;-84
2022/01/02 09:10:24;;;;;;;20.70;14.10;;;7.80;99.90;;;;;;4998819;28;20199;-84
2022/01/02 09:12:50;;;;;;;16.83;10.20;;;8.10;99.90;;;;;;4993301;28;20227;-84
2022/01/02 09:15:15;;;;;;;18.15;10.55;;;8.30;99.90;;;;;;4995286;28;20448;-84
2022/01/02 09:17:41;;;;;;;14.97;10.50;;;8.30;99.90;;;;;;4977211;28;20274;-84
2022/01/02 09:20:09;;;;;;;16.13;10.90;;;8.20;99.90;;;;;;4989174;28;20211;-84
2022/01/02 09:22:37;;;;;;;16.50;10.85;;;8.40;99.90;;;;;;4977919;28;20450;-84
2022/01/02 09:25:03;;;;;;;17.25;11.57;;;8.40;99.90;;;;;;4991019;28;20186;-84
2022/01/02 09:27:29;;;;;;;17.55;10.88;;;8.30;99.90;;;;;;4992650;28;20191;-84
2022/01/02 09:29:55;;;;;;;18.07;10.93;;;8.60;99.90;;;;;;4993048;28;20194;-84
2022/01/02 09:32:20;;;;;;;19.00;10.33;;;8.40;99.90;;;;;;4991651;28;20219;-84
2022/01/02 09:34:46;;;;;;;15.40;9.97;;;8.40;99.90;;;;;;4994230;28;20555;-84
2022/01/02 09:37:12;;;;;;;13.17;9.33;;;8.40;99.90;;;;;;4996235;28;20176;-84
2022/01/02 09:39:37;;;;;;;14.68;9.68;;;8.60;99.90;;;;;;4992380;28;20226;-84
2022/01/02 09:42:04;;;;;;;12.93;9.60;;;8.80;99.90;;;;;;4975434;28;20203;-83
2022/01/02 09:44:30;;;;;;;16.55;10.23;;;8.50;99.90;;;;;;4991713;28;20183;-84
2022/01/02 09:46:57;;;;;;;15.88;11.63;;;8.40;99.90;;;;;;4993384;28;20198;-83
2022/01/02 09:49:23;;;;;;;13.20;10.52;;;8.60;99.90;;;;;;4994770;28;20549;-84
2022/01/02 09:51:48;;;;;;;15.53;10.37;;;8.50;99.90;;;;;;4994416;28;20203;-84
2022/01/02 09:54:14;;;;;;;13.70;10.53;;;8.50;99.90;;;;;;4976028;28;20581;-84
2022/01/02 09:56:40;;;;;;;15.40;11.10;;;8.30;99.90;;;;;;4972926;28;20191;-84
2022/01/02 09:59:05;;;;;;;20.07;12.23;;;8.10;99.90;;;;;;4974729;28;20261;-84
2022/01/02 10:01:32;;;;;;;16.07;11.00;;;8.40;99.90;;;;;;4973675;28;20190;-84
2022/01/02 10:03:58;;;;;;;13.50;10.38;;;8.20;99.90;;;;;;4969717;28;20183;-84
2022/01/02 10:06:47;;;;;;;14.15;10.43;;;8.60;99.90;;;;;;4986814;28;20729;-84
2022/01/02 10:09:37;;;;;;;15.10;9.48;;;8.60;99.90;;;;;;4973595;28;20186;-84
2022/01/02 10:12:22;;;;;;;16.42;10.95;;;8.30;99.90;;;;;;4975230;28;20245;-84
2022/01/02 10:15:06;;;;;;;21.77;12.88;;;8.30;99.90;;;;;;4990812;28;20187;-84
2022/01/02 10:17:51;;;;;;;27.98;13.95;;;8.30;99.90;;;;;;4973357;28;20234;-84
2022/01/02 10:20:17;;;;;;;31.65;15.98;;;8.40;99.90;;;;;;4988916;28;20202;-84
2022/01/02 10:23:18;;;;;;;55.08;23.52;;;8.40;99.90;;;;;;4993009;28;20206;-84
2022/01/02 10:25:45;;;;;;;67.93;30.73;;;8.20;99.90;;;;;;4988565;28;20170;-85
2022/01/02 10:28:51;;;;;;;55.45;25.05;;;7.90;99.90;;;;;;4991267;28;20187;-83
2022/01/02 10:31:16;;;;;;;46.35;23.80;;;7.90;99.90;;;;;;4965959;28;20214;-84
2022/01/02 10:33:46;;;;;;;68.30;31.13;;;8.10;99.90;;;;;;4973615;28;20207;-84
2022/01/02 10:36:11;;;;;;;39.67;22.10;;;7.90;99.90;;;;;;4981698;28;20190;-84
2022/01/02 10:38:37;;;;;;;31.57;17.43;;;7.80;99.90;;;;;;4988458;28;20220;-86
2022/01/02 10:41:02;;;;;;;31.30;17.40;;;7.80;99.90;;;;;;4988418;28;20237;-83
2022/01/02 10:43:33;;;;;;;27.83;14.67;;;8.10;99.90;;;;;;4986349;28;20309;-83
2022/01/02 10:46:07;;;;;;;22.27;13.95;;;8.30;99.90;;;;;;4971831;28;20191;-83
2022/01/02 10:48:38;;;;;;;27.98;17.60;;;8.40;99.90;;;;;;4991222;28;20644;-83
2022/01/02 10:51:15;;;;;;;39.03;20.02;;;8.40;99.90;;;;;;4972455;28;20175;-83
2022/01/02 10:53:58;;;;;;;28.60;16.77;;;8.10;99.90;;;;;;4989256;28;20207;-83
2022/01/02 10:56:26;;;;;;;21.10;13.45;;;7.90;99.90;;;;;;4990903;28;20182;-83
2022/01/02 10:58:52;;;;;;;18.25;12.48;;;7.60;99.90;;;;;;4974567;28;20218;-83
2022/01/02 11:01:17;;;;;;;21.80;13.90;;;7.40;99.90;;;;;;4977858;28;20259;-83
2022/01/02 11:03:47;;;;;;;21.03;13.57;;;7.20;99.90;;;;;;4979367;28;20455;-83
2022/01/02 11:06:32;;;;;;;15.10;11.65;;;7.40;99.90;;;;;;4966174;28;20236;-83
2022/01/02 11:08:59;;;;;;;52.60;26.15;;;7.40;99.90;;;;;;4993346;28;20179;-83
2022/01/02 11:11:25;;;;;;;22.85;15.38;;;7.80;99.90;;;;;;4998097;28;20187;-83
2022/01/02 11:13:51;;;;;;;32.93;22.23;;;7.80;99.90;;;;;;4990149;28;20206;-83
2022/01/02 11:16:18;;;;;;;16.60;12.20;;;8.10;99.90;;;;;;4992233;28;20505;-83
2022/01/02 11:18:45;;;;;;;16.95;11.18;;;8.00;99.90;;;;;;4995489;28;20667;-84
2022/01/02 11:21:12;;;;;;;16.42;10.57;;;7.90;99.90;;;;;;4988279;28;20181;-83
2022/01/02 11:23:54;;;;;;;18.60;11.20;;;7.90;99.90;;;;;;4989201;28;20203;-83
2022/01/02 11:26:24;;;;;;;15.13;10.93;;;8.30;99.90;;;;;;4987298;28;21185;-83
2022/01/02 11:28:50;;;;;;;17.42;11.48;;;8.70;99.90;;;;;;4977063;28;20210;-83
2022/01/02 11:31:34;;;;;;;16.30;10.43;;;9.20;99.90;;;;;;4994538;28;20306;-83
2022/01/02 11:34:00;;;;;;;16.05;10.68;;;9.50;99.90;;;;;;4973960;28;20195;-83
2022/01/02 11:36:30;;;;;;;15.07;10.23;;;9.60;99.90;;;;;;4987288;28;20209;-83
2022/01/02 11:39:09;;;;;;;17.45;11.30;;;9.40;99.90;;;;;;4991708;28;20205;-83
2022/01/02 11:41:45;;;;;;;15.85;10.20;;;8.70;99.90;;;;;;4997754;28;20242;-83
2022/01/02 11:44:15;;;;;;;16.55;11.32;;;8.70;99.90;;;;;;5002423;28;20757;-83
2022/01/02 11:46:45;;;;;;;16.45;11.23;;;8.70;99.90;;;;;;4983445;28;20206;-83
2022/01/02 11:49:15;;;;;;;15.00;11.55;;;8.90;99.90;;;;;;4997230;28;20548;-81
2022/01/02 11:51:47;;;;;;;14.48;10.65;;;8.90;99.90;;;;;;4980224;28;20183;-83
2022/01/02 11:54:28;;;;;;;18.95;11.60;;;8.90;99.90;;;;;;4983765;28;20695;-84
2022/01/02 11:56:57;;;;;;;15.00;9.98;;;8.80;99.90;;;;;;4986319;28;20241;-83
2022/01/02 11:59:47;;;;;;;14.20;11.38;;;8.70;99.90;;;;;;4983066;28;20219;-83
2022/01/02 12:02:18;;;;;;;18.50;12.10;;;8.50;99.90;;;;;;5006017;23;21286;-82
2022/01/02 12:04:59;;;;;;;17.85;11.13;;;8.50;99.90;;;;;;4992746;28;20197;-82
2022/01/02 12:07:34;;;;;;;16.65;12.60;;;8.60;99.90;;;;;;4982596;28;20174;-82
2022/01/02 12:10:20;;;;;;;19.55;11.75;;;8.90;99.90;;;;;;5011393;28;20174;-84
2022/01/02 12:13:18;;;;;;;17.88;10.75;;;9.10;99.90;;;;;;5004669;28;20527;-83
2022/01/02 12:15:44;;;;;;;14.50;11.02;;;9.40;99.90;;;;;;5020551;28;20190;-81
2022/01/02 12:18:28;;;;;;;14.87;10.20;;;9.70;99.90;;;;;;4996999;28;20512;-84
2022/01/02 12:20:56;;;;;;;13.70;9.75;;;9.90;99.90;;;;;;5014138;28;20686;-82
2022/01/02 12:23:34;;;;;;;14.05;9.25;;;10.00;99.90;;;;;;4997360;28;20286;-80
2022/01/02 12:26:05;;;;;;;11.50;9.20;;;10.20;99.90;;;;;;5012470;28;20178;-83
2022/01/02 12:28:42;;;;;;;13.80;9.45;;;10.60;99.90;;;;;;5012850;28;20659;-83
2022/01/02 12:31:11;;;;;;;13.10;10.27;;;10.60;99.90;;;;;;4993464;28;20532;-81
2022/01/02 12:33:38;;;;;;;15.45;10.30;;;10.90;99.90;;;;;;4993907;28;20194;-82
2022/01/02 12:36:16;;;;;;;9.32;8.32;;;11.20;99.90;;;;;;5012010;28;20171;-83
2022/01/02 12:38:54;;;;;;;11.82;9.18;;;11.20;99.90;;;;;;5014758;28;20178;-84
2022/01/02 12:41:23;;;;;;;15.73;10.63;;;11.20;99.90;;;;;;4989539;28;20730;-83
2022/01/02 12:44:00;;;;;;;13.77;10.75;;;11.20;99.90;;;;;;5011103;28;20859;-81
2022/01/02 12:46:50;;;;;;;22.50;13.10;;;11.20;99.90;;;;;;5006413;28;20167;-81
2022/01/02 12:49:34;;;;;;;14.90;9.70;;;10.90;99.90;;;;;;5011847;28;20269;-81
2022/01/02 12:52:12;;;;;;;15.50;9.35;;;10.40;99.90;;;;;;5010138;28;20182;-80